• Join FlightAware (Why Join?)
  • Login
  • US Flag 
06:30PM EST


 

Airport Tracker/Info


-or-


 

Live Flight TrackerFlight Track Log ✈ EGF3026 ✈ 18-Apr-2014 ✈ KBWI - KJFK

Flight Track Log - Related Links

Times and Time Zones

All times are in EDT time to prevent confusion due to time zone crossing. See the EGF3026 flight status page for this flight to view local times or setup timezone preferences in your user account.

Time Position Orientation Groundspeed Altitude Reporting Facility
EDT Latitude Longitude Course Direction KTS MPH feet Rate Location/Type
03:05PM 39.2937 -76.4444 56° Northeast  Level Estimated
03:06PM 39.3331 -76.3695 56° Northeast  Level Estimated
03:07PM 39.3724 -76.2946 56° Northeast  Level Estimated
03:08PM 39.4117 -76.2196 56° Northeast  Level Estimated
03:09PM 39.4509 -76.1445 56° Northeast  Level Estimated
03:10PM 39.4900 -76.0694 56° Northeast  Level Estimated
03:11PM 39.5291 -75.9941 56° Northeast  Level Estimated
03:12PM 39.5682 -75.9188 56° Northeast  Level Estimated
03:13PM 39.6072 -75.8434 56° Northeast  Level Estimated
03:14PM 39.6462 -75.7679 56° Northeast  Level Estimated
03:15PM 39.6851 -75.6923 56° Northeast  Level Estimated
03:16PM 39.7240 -75.6166 56° Northeast  Level Estimated
03:17PM 39.7628 -75.5408 56° Northeast  Level Estimated
03:18PM 39.8016 -75.4650 56° Northeast  Level Estimated
03:19PM 39.8403 -75.3890 56° Northeast  Level Estimated
03:20PM 39.8790 -75.3130 56° Northeast  Level Estimated
03:21PM 39.9176 -75.2369 56° Northeast  Level Estimated
03:22PM 39.9562 -75.1607 57° Northeast  Level Estimated
03:23PM 39.9947 -75.0844 57° Northeast  Level Estimated
03:24PM 40.0332 -75.0081 57° Northeast  Level Estimated
03:25PM 40.0716 -74.9316 57° Northeast  Level Estimated
03:26PM 40.1100 -74.8551 57° Northeast  Level Estimated
03:27PM 40.1483 -74.7785 57° Northeast  Level Estimated
03:28PM 40.1866 -74.7018 57° Northeast  Level Estimated
03:29PM 40.2248 -74.6250 57° Northeast  Level Estimated
03:30PM 40.2630 -74.5481 57° Northeast  Level Estimated
03:31PM 40.3011 -74.4711 57° Northeast  Level Estimated
03:32PM 40.3392 -74.3941 57° Northeast  Level Estimated
03:33PM 40.3772 -74.3169 57° Northeast  Level Estimated
03:34PM 40.4152 -74.2397 57° Northeast  Level Estimated
03:35PM 40.4531 -74.1624 57° Northeast  Level Estimated
03:36PM 40.4909 -74.0850 57° Northeast  Level Estimated
03:37PM 40.5288 -74.0075 57° Northeast  Level Estimated
03:38PM 40.5665 -73.9299 57° Northeast  Level Estimated
03:39PM 40.6042 -73.8523 57° Northeast  Level Estimated
03:40PM 40.6398 -73.7789 57° Northeast  Level Estimated
03:41PM 40.6398 -73.7789 North  Level Estimated
03:42PM 40.6398 -73.7789 North  Level Estimated
03:43PM 40.6398 -73.7789 North  Level Estimated
03:44PM 40.6398 -73.7789 North  Level Estimated